sensor_id;sensor_type;location;lat;lon;timestamp;noise_LAeq;noise_LA_min;noise_LA_max;noise_LA01;noise_LA95
74496;Laerm;62979;55.720;37.606;2022-09-14T00:02:25;51.19;40.04;64.52;;
74496;Laerm;62979;55.720;37.606;2022-09-14T00:04:53;45.35;39.54;55.32;;
74496;Laerm;62979;55.720;37.606;2022-09-14T00:07:20;44.38;39.30;55.22;;
74496;Laerm;62979;55.720;37.606;2022-09-14T00:09:47;42.97;38.72;52.78;;
74496;Laerm;62979;55.720;37.606;2022-09-14T00:12:16;43.21;38.94;58.24;;
74496;Laerm;62979;55.720;37.606;2022-09-14T00:14:44;42.64;38.91;50.70;;
74496;Laerm;62979;55.720;37.606;2022-09-14T00:17:11;42.63;39.40;58.59;;
74496;Laerm;62979;55.720;37.606;2022-09-14T00:19:39;42.42;39.39;51.65;;
74496;Laerm;62979;55.720;37.606;2022-09-14T00:22:07;42.64;38.48;53.77;;
74496;Laerm;62979;55.720;37.606;2022-09-14T00:24:34;42.28;38.97;49.76;;
74496;Laerm;62979;55.720;37.606;2022-09-14T00:27:01;42.38;39.00;55.01;;
74496;Laerm;62979;55.720;37.606;2022-09-14T00:29:28;45.63;40.77;54.11;;
74496;Laerm;62979;55.720;37.606;2022-09-14T00:31:56;44.64;40.80;56.10;;
74496;Laerm;62979;55.720;37.606;2022-09-14T00:34:23;44.36;39.81;57.29;;
74496;Laerm;62979;55.720;37.606;2022-09-14T00:36:51;43.70;39.59;57.47;;
74496;Laerm;62979;55.720;37.606;2022-09-14T00:39:22;46.51;39.95;77.91;;
74496;Laerm;62979;55.720;37.606;2022-09-14T00:41:51;44.03;40.11;55.25;;
74496;Laerm;62979;55.720;37.606;2022-09-14T00:45:00;44.86;40.74;57.90;;
74496;Laerm;62979;55.720;37.606;2022-09-14T00:47:30;44.49;40.08;65.27;;
74496;Laerm;62979;55.720;37.606;2022-09-14T00:50:01;45.13;41.05;63.56;;
74496;Laerm;62979;55.720;37.606;2022-09-14T00:52:32;45.53;40.86;64.09;;
74496;Laerm;62979;55.720;37.606;2022-09-14T00:55:07;43.95;39.91;60.40;;
74496;Laerm;62979;55.720;37.606;2022-09-14T00:57:39;42.63;39.44;58.64;;
74496;Laerm;62979;55.720;37.606;2022-09-14T01:00:09;43.15;40.08;55.65;;
74496;Laerm;62979;55.720;37.606;2022-09-14T01:02:38;44.28;40.26;57.07;;
74496;Laerm;62979;55.720;37.606;2022-09-14T01:05:07;45.05;39.26;56.94;;
74496;Laerm;62979;55.720;37.606;2022-09-14T01:08:03;47.63;38.96;60.84;;
74496;Laerm;62979;55.720;37.606;2022-09-14T01:10:49;42.98;39.35;57.70;;
74496;Laerm;62979;55.720;37.606;2022-09-14T01:13:31;46.82;40.44;59.06;;
74496;Laerm;62979;55.720;37.606;2022-09-14T01:16:11;47.61;39.29;59.83;;
74496;Laerm;62979;55.720;37.606;2022-09-14T01:18:47;43.41;39.80;53.17;;
74496;Laerm;62979;55.720;37.606;2022-09-14T01:21:23;43.96;39.64;54.14;;
74496;Laerm;62979;55.720;37.606;2022-09-14T01:24:00;44.20;40.32;53.92;;
74496;Laerm;62979;55.720;37.606;2022-09-14T01:27:10;47.73;39.40;62.10;;
74496;Laerm;62979;55.720;37.606;2022-09-14T01:29:43;43.13;38.96;54.68;;
74496;Laerm;62979;55.720;37.606;2022-09-14T01:32:18;43.70;39.60;51.27;;
74496;Laerm;62979;55.720;37.606;2022-09-14T01:34:56;42.25;38.78;46.06;;
74496;Laerm;62979;55.720;37.606;2022-09-14T01:37:30;44.10;39.56;55.92;;
74496;Laerm;62979;55.720;37.606;2022-09-14T01:40:06;48.16;39.69;60.39;;
74496;Laerm;62979;55.720;37.606;2022-09-14T01:42:38;44.09;39.23;58.81;;
74496;Laerm;62979;55.720;37.606;2022-09-14T01:45:12;43.29;39.18;57.15;;
74496;Laerm;62979;55.720;37.606;2022-09-14T01:47:46;44.59;38.93;72.95;;
74496;Laerm;62979;55.720;37.606;2022-09-14T01:50:24;44.61;39.53;71.86;;
74496;Laerm;62979;55.720;37.606;2022-09-14T01:52:58;43.76;39.49;49.63;;
74496;Laerm;62979;55.720;37.606;2022-09-14T01:55:30;51.88;40.18;64.13;;
74496;Laerm;62979;55.720;37.606;2022-09-14T01:58:08;42.42;39.23;45.39;;
74496;Laerm;62979;55.720;37.606;2022-09-14T02:00:43;46.97;39.23;77.92;;
74496;Laerm;62979;55.720;37.606;2022-09-14T02:03:18;44.13;39.55;72.77;;
74496;Laerm;62979;55.720;37.606;2022-09-14T02:05:58;44.56;40.04;51.91;;
74496;Laerm;62979;55.720;37.606;2022-09-14T02:08:28;47.16;40.54;58.19;;
74496;Laerm;62979;55.720;37.606;2022-09-14T02:10:57;51.86;40.22;63.44;;
74496;Laerm;62979;55.720;37.606;2022-09-14T02:13:26;61.16;40.46;72.83;;
74496;Laerm;62979;55.720;37.606;2022-09-14T02:15:54;43.82;39.67;55.56;;
74496;Laerm;62979;55.720;37.606;2022-09-14T02:18:22;43.20;39.80;55.19;;
74496;Laerm;62979;55.720;37.606;2022-09-14T02:20:54;44.34;39.66;51.06;;
74496;Laerm;62979;55.720;37.606;2022-09-14T02:23:24;52.72;40.58;70.57;;
74496;Laerm;62979;55.720;37.606;2022-09-14T02:25:52;43.36;39.24;50.71;;
74496;Laerm;62979;55.720;37.606;2022-09-14T02:28:19;47.13;40.18;59.29;;
74496;Laerm;62979;55.720;37.606;2022-09-14T02:31:02;46.17;40.75;71.17;;
74496;Laerm;62979;55.720;37.606;2022-09-14T02:33:44;44.49;40.07;52.81;;
74496;Laerm;62979;55.720;37.606;2022-09-14T02:36:23;45.90;40.71;55.09;;
74496;Laerm;62979;55.720;37.606;2022-09-14T02:39:01;60.26;41.60;71.91;;
74496;Laerm;62979;55.720;37.606;2022-09-14T02:41:41;44.76;39.63;54.57;;
74496;Laerm;62979;55.720;37.606;2022-09-14T02:44:19;60.05;41.45;71.58;;
74496;Laerm;62979;55.720;37.606;2022-09-14T02:46:57;56.69;40.65;70.14;;
74496;Laerm;62979;55.720;37.606;2022-09-14T02:49:36;47.19;41.45;57.15;;
74496;Laerm;62979;55.720;37.606;2022-09-14T02:52:14;46.03;40.49;55.63;;
74496;Laerm;62979;55.720;37.606;2022-09-14T02:54:51;49.40;41.69;58.96;;
74496;Laerm;62979;55.720;37.606;2022-09-14T02:57:20;45.49;40.55;55.24;;
74496;Laerm;62979;55.720;37.606;2022-09-14T02:59:47;49.71;41.50;58.57;;
74496;Laerm;62979;55.720;37.606;2022-09-14T03:02:15;44.59;40.47;57.00;;
74496;Laerm;62979;55.720;37.606;2022-09-14T03:04:42;48.00;41.73;57.31;;
74496;Laerm;62979;55.720;37.606;2022-09-14T03:07:09;50.22;42.52;61.87;;
74496;Laerm;62979;55.720;37.606;2022-09-14T03:09:36;59.13;41.78;77.40;;
74496;Laerm;62979;55.720;37.606;2022-09-14T03:12:04;51.08;41.83;66.05;;
74496;Laerm;62979;55.720;37.606;2022-09-14T03:14:31;51.80;42.33;64.11;;
74496;Laerm;62979;55.720;37.606;2022-09-14T03:16:58;49.24;42.71;63.28;;
74496;Laerm;62979;55.720;37.606;2022-09-14T03:19:26;52.70;43.23;61.03;;
74496;Laerm;62979;55.720;37.606;2022-09-14T03:21:53;58.24;43.15;72.28;;
74496;Laerm;62979;55.720;37.606;2022-09-14T03:24:20;50.99;42.57;62.63;;
74496;Laerm;62979;55.720;37.606;2022-09-14T03:26:47;51.82;43.07;70.42;;
74496;Laerm;62979;55.720;37.606;2022-09-14T03:29:16;53.86;43.24;68.85;;
74496;Laerm;62979;55.720;37.606;2022-09-14T03:31:44;48.59;43.06;58.54;;
74496;Laerm;62979;55.720;37.606;2022-09-14T03:34:11;51.15;43.36;65.84;;
74496;Laerm;62979;55.720;37.606;2022-09-14T03:36:39;51.16;43.32;63.09;;
74496;Laerm;62979;55.720;37.606;2022-09-14T03:39:06;47.70;43.55;62.34;;
74496;Laerm;62979;55.720;37.606;2022-09-14T03:41:33;51.82;44.31;61.01;;
74496;Laerm;62979;55.720;37.606;2022-09-14T03:44:01;50.78;44.02;59.61;;
74496;Laerm;62979;55.720;37.606;2022-09-14T03:46:28;53.17;44.02;65.73;;
74496;Laerm;62979;55.720;37.606;2022-09-14T03:48:55;53.22;44.91;64.66;;
74496;Laerm;62979;55.720;37.606;2022-09-14T03:51:22;53.61;44.46;75.32;;
74496;Laerm;62979;55.720;37.606;2022-09-14T03:53:51;50.08;44.26;67.89;;
74496;Laerm;62979;55.720;37.606;2022-09-14T03:56:21;54.16;46.64;81.90;;
74496;Laerm;62979;55.720;37.606;2022-09-14T03:58:49;50.52;44.53;73.00;;
74496;Laerm;62979;55.720;37.606;2022-09-14T04:01:19;53.58;44.60;69.32;;
74496;Laerm;62979;55.720;37.606;2022-09-14T04:03:47;50.35;45.37;69.72;;
74496;Laerm;62979;55.720;37.606;2022-09-14T04:06:15;58.37;45.98;91.15;;
74496;Laerm;62979;55.720;37.606;2022-09-14T04:08:45;54.30;45.78;76.45;;
74496;Laerm;62979;55.720;37.606;2022-09-14T04:11:17;55.83;45.94;74.75;;
74496;Laerm;62979;55.720;37.606;2022-09-14T04:13:45;54.21;44.55;63.58;;
74496;Laerm;62979;55.720;37.606;2022-09-14T04:16:13;55.31;45.89;72.65;;
74496;Laerm;62979;55.720;37.606;2022-09-14T04:18:41;55.93;45.15;68.91;;
74496;Laerm;62979;55.720;37.606;2022-09-14T04:21:13;52.88;44.71;68.40;;
74496;Laerm;62979;55.720;37.606;2022-09-14T04:23:40;56.35;47.67;70.37;;
74496;Laerm;62979;55.720;37.606;2022-09-14T04:26:10;55.47;47.11;62.97;;
74496;Laerm;62979;55.720;37.606;2022-09-14T04:28:39;55.78;46.86;74.89;;
74496;Laerm;62979;55.720;37.606;2022-09-14T04:31:09;56.83;47.07;70.14;;
74496;Laerm;62979;55.720;37.606;2022-09-14T04:33:39;55.94;45.74;63.99;;
74496;Laerm;62979;55.720;37.606;2022-09-14T04:36:09;53.84;45.02;64.76;;
74496;Laerm;62979;55.720;37.606;2022-09-14T04:38:38;55.39;48.28;70.67;;
74496;Laerm;62979;55.720;37.606;2022-09-14T04:41:08;56.54;48.61;65.26;;
74496;Laerm;62979;55.720;37.606;2022-09-14T04:43:37;53.92;45.98;64.72;;
74496;Laerm;62979;55.720;37.606;2022-09-14T04:46:08;55.59;47.05;63.11;;
74496;Laerm;62979;55.720;37.606;2022-09-14T04:48:36;57.30;48.24;65.47;;
74496;Laerm;62979;55.720;37.606;2022-09-14T04:51:04;57.43;48.10;65.33;;
74496;Laerm;62979;55.720;37.606;2022-09-14T04:53:34;59.70;52.94;74.63;;
74496;Laerm;62979;55.720;37.606;2022-09-14T04:56:03;58.72;48.80;67.68;;
74496;Laerm;62979;55.720;37.606;2022-09-14T04:58:32;56.69;49.16;66.99;;
74496;Laerm;62979;55.720;37.606;2022-09-14T05:01:05;58.91;52.15;68.38;;
74496;Laerm;62979;55.720;37.606;2022-09-14T05:03:33;60.31;51.50;72.38;;
74496;Laerm;62979;55.720;37.606;2022-09-14T05:06:01;60.27;54.23;74.20;;
74496;Laerm;62979;55.720;37.606;2022-09-14T05:08:29;61.42;50.32;74.13;;
74496;Laerm;62979;55.720;37.606;2022-09-14T05:10:56;59.75;49.85;68.98;;
74496;Laerm;62979;55.720;37.606;2022-09-14T05:13:24;59.86;51.38;66.27;;
74496;Laerm;62979;55.720;37.606;2022-09-14T05:15:51;59.03;50.74;69.80;;
74496;Laerm;62979;55.720;37.606;2022-09-14T05:18:20;56.86;47.76;66.54;;
74496;Laerm;62979;55.720;37.606;2022-09-14T05:20:47;57.37;48.13;69.87;;
74496;Laerm;62979;55.720;37.606;2022-09-14T05:23:14;58.51;52.25;67.05;;
74496;Laerm;62979;55.720;37.606;2022-09-14T05:25:40;58.34;51.82;68.14;;
74496;Laerm;62979;55.720;37.606;2022-09-14T05:28:08;56.89;50.28;63.81;;
74496;Laerm;62979;55.720;37.606;2022-09-14T05:30:38;59.38;49.40;78.19;;
74496;Laerm;62979;55.720;37.606;2022-09-14T05:33:06;59.71;52.78;66.99;;
74496;Laerm;62979;55.720;37.606;2022-09-14T05:35:34;59.90;52.53;67.48;;
74496;Laerm;62979;55.720;37.606;2022-09-14T05:38:01;57.61;51.25;64.96;;
74496;Laerm;62979;55.720;37.606;2022-09-14T05:40:28;56.44;47.21;63.71;;
74496;Laerm;62979;55.720;37.606;2022-09-14T05:42:56;60.16;49.07;77.76;;
74496;Laerm;62979;55.720;37.606;2022-09-14T05:45:23;58.67;52.57;71.25;;
74496;Laerm;62979;55.720;37.606;2022-09-14T05:47:50;57.41;47.97;63.70;;
74496;Laerm;62979;55.720;37.606;2022-09-14T05:50:17;57.82;50.37;76.01;;
74496;Laerm;62979;55.720;37.606;2022-09-14T05:52:45;56.47;49.56;67.31;;
74496;Laerm;62979;55.720;37.606;2022-09-14T05:55:14;58.92;50.63;70.68;;
74496;Laerm;62979;55.720;37.606;2022-09-14T05:57:41;59.46;50.46;68.08;;
74496;Laerm;62979;55.720;37.606;2022-09-14T06:00:09;57.08;47.42;70.47;;
74496;Laerm;62979;55.720;37.606;2022-09-14T06:02:36;62.43;50.23;70.31;;
74496;Laerm;62979;55.720;37.606;2022-09-14T06:05:04;62.90;60.39;69.81;;
74496;Laerm;62979;55.720;37.606;2022-09-14T06:07:32;63.30;60.15;72.20;;
74496;Laerm;62979;55.720;37.606;2022-09-14T06:10:00;62.82;56.41;74.18;;
74496;Laerm;62979;55.720;37.606;2022-09-14T06:12:27;67.14;55.12;73.12;;
74496;Laerm;62979;55.720;37.606;2022-09-14T06:14:54;67.91;62.67;72.60;;
74496;Laerm;62979;55.720;37.606;2022-09-14T06:17:22;68.02;62.78;72.52;;
74496;Laerm;62979;55.720;37.606;2022-09-14T06:19:51;67.74;62.66;72.60;;
74496;Laerm;62979;55.720;37.606;2022-09-14T06:22:18;67.99;63.05;72.86;;
74496;Laerm;62979;55.720;37.606;2022-09-14T06:24:45;67.30;62.86;71.45;;
74496;Laerm;62979;55.720;37.606;2022-09-14T06:27:14;67.72;63.94;75.48;;
74496;Laerm;62979;55.720;37.606;2022-09-14T06:29:41;67.42;63.32;73.48;;
74496;Laerm;62979;55.720;37.606;2022-09-14T06:32:08;66.93;62.43;72.08;;
74496;Laerm;62979;55.720;37.606;2022-09-14T06:34:35;67.49;63.65;71.71;;
74496;Laerm;62979;55.720;37.606;2022-09-14T06:37:02;66.85;56.35;71.11;;
74496;Laerm;62979;55.720;37.606;2022-09-14T06:39:29;65.03;52.19;71.73;;
74496;Laerm;62979;55.720;37.606;2022-09-14T06:41:56;65.53;61.49;71.18;;
74496;Laerm;62979;55.720;37.606;2022-09-14T06:44:25;66.15;61.47;69.40;;
74496;Laerm;62979;55.720;37.606;2022-09-14T06:46:52;67.66;62.93;71.86;;
74496;Laerm;62979;55.720;37.606;2022-09-14T06:49:19;64.19;61.15;70.73;;
74496;Laerm;62979;55.720;37.606;2022-09-14T06:51:48;64.98;61.96;79.04;;
74496;Laerm;62979;55.720;37.606;2022-09-14T06:54:17;65.06;61.46;87.94;;
74496;Laerm;62979;55.720;37.606;2022-09-14T06:56:45;67.33;58.96;72.36;;
74496;Laerm;62979;55.720;37.606;2022-09-14T06:59:16;67.92;64.26;76.59;;
74496;Laerm;62979;55.720;37.606;2022-09-14T07:01:45;68.02;63.38;73.47;;
74496;Laerm;62979;55.720;37.606;2022-09-14T07:04:14;67.61;63.45;71.03;;
74496;Laerm;62979;55.720;37.606;2022-09-14T07:06:43;67.49;62.90;81.37;;
74496;Laerm;62979;55.720;37.606;2022-09-14T07:09:12;67.11;61.89;70.93;;
74496;Laerm;62979;55.720;37.606;2022-09-14T07:11:40;67.12;63.30;71.51;;
74496;Laerm;62979;55.720;37.606;2022-09-14T07:14:08;67.00;62.23;71.94;;
74496;Laerm;62979;55.720;37.606;2022-09-14T07:16:37;67.61;57.47;77.64;;
74496;Laerm;62979;55.720;37.606;2022-09-14T07:19:10;63.74;55.21;68.49;;
74496;Laerm;62979;55.720;37.606;2022-09-14T07:21:38;65.71;62.43;69.72;;
74496;Laerm;62979;55.720;37.606;2022-09-14T07:24:05;66.46;62.75;70.74;;
74496;Laerm;62979;55.720;37.606;2022-09-14T07:26:36;65.91;61.53;74.36;;
74496;Laerm;62979;55.720;37.606;2022-09-14T07:29:07;64.36;60.83;80.94;;
74496;Laerm;62979;55.720;37.606;2022-09-14T07:31:38;63.03;60.25;86.00;;
74496;Laerm;62979;55.720;37.606;2022-09-14T07:34:08;66.49;56.74;72.40;;
74496;Laerm;62979;55.720;37.606;2022-09-14T07:36:36;66.54;62.71;70.14;;
74496;Laerm;62979;55.720;37.606;2022-09-14T07:39:07;66.60;62.80;78.30;;
74496;Laerm;62979;55.720;37.606;2022-09-14T07:41:35;66.65;62.99;71.90;;
74496;Laerm;62979;55.720;37.606;2022-09-14T07:44:04;66.98;62.49;71.79;;
74496;Laerm;62979;55.720;37.606;2022-09-14T07:46:37;68.37;62.51;82.43;;
74496;Laerm;62979;55.720;37.606;2022-09-14T07:49:07;66.40;62.27;71.99;;
74496;Laerm;62979;55.720;37.606;2022-09-14T07:51:35;67.25;62.56;70.48;;
74496;Laerm;62979;55.720;37.606;2022-09-14T07:54:03;67.63;64.54;70.86;;
74496;Laerm;62979;55.720;37.606;2022-09-14T07:56:31;65.64;53.79;70.48;;
74496;Laerm;62979;55.720;37.606;2022-09-14T07:58:59;65.37;56.56;68.01;;
74496;Laerm;62979;55.720;37.606;2022-09-14T08:01:28;65.58;62.23;70.33;;
74496;Laerm;62979;55.720;37.606;2022-09-14T08:03:59;65.75;62.80;69.01;;
74496;Laerm;62979;55.720;37.606;2022-09-14T08:06:28;65.86;62.01;70.95;;
74496;Laerm;62979;55.720;37.606;2022-09-14T08:08:57;64.82;61.51;73.55;;
74496;Laerm;62979;55.720;37.606;2022-09-14T08:11:27;63.40;60.28;84.25;;
74496;Laerm;62979;55.720;37.606;2022-09-14T08:13:57;66.64;56.95;72.32;;
74496;Laerm;62979;55.720;37.606;2022-09-14T08:16:27;67.84;63.46;73.36;;
74496;Laerm;62979;55.720;37.606;2022-09-14T08:18:57;67.20;61.97;71.66;;
74496;Laerm;62979;55.720;37.606;2022-09-14T08:21:28;68.03;63.31;73.67;;
74496;Laerm;62979;55.720;37.606;2022-09-14T08:23:56;66.89;63.13;72.19;;
74496;Laerm;62979;55.720;37.606;2022-09-14T08:26:26;67.13;62.92;79.07;;
74496;Laerm;62979;55.720;37.606;2022-09-14T08:28:55;66.10;58.77;72.19;;
74496;Laerm;62979;55.720;37.606;2022-09-14T08:31:26;66.06;61.86;70.03;;
74496;Laerm;62979;55.720;37.606;2022-09-14T08:33:56;64.82;54.21;70.44;;
74496;Laerm;62979;55.720;37.606;2022-09-14T08:36:26;58.67;52.90;69.68;;
74496;Laerm;62979;55.720;37.606;2022-09-14T08:38:54;57.34;49.82;65.88;;
74496;Laerm;62979;55.720;37.606;2022-09-14T08:41:30;56.50;48.23;65.58;;
74496;Laerm;62979;55.720;37.606;2022-09-14T08:44:01;56.17;49.45;69.45;;
74496;Laerm;62979;55.720;37.606;2022-09-14T08:46:35;58.72;49.41;70.96;;
74496;Laerm;62979;55.720;37.606;2022-09-14T08:49:13;55.90;49.62;62.04;;
74496;Laerm;62979;55.720;37.606;2022-09-14T08:51:43;56.48;49.43;65.52;;
74496;Laerm;62979;55.720;37.606;2022-09-14T08:54:12;56.27;49.24;61.02;;
74496;Laerm;62979;55.720;37.606;2022-09-14T08:56:43;56.77;49.08;67.23;;
74496;Laerm;62979;55.720;37.606;2022-09-14T08:59:36;57.08;50.34;63.92;;
74496;Laerm;62979;55.720;37.606;2022-09-14T09:02:27;57.45;46.93;67.58;;
74496;Laerm;62979;55.720;37.606;2022-09-14T09:05:05;56.38;46.68;68.47;;
74496;Laerm;62979;55.720;37.606;2022-09-14T09:07:44;55.11;46.72;74.15;;
74496;Laerm;62979;55.720;37.606;2022-09-14T09:10:18;60.27;49.81;73.79;;
74496;Laerm;62979;55.720;37.606;2022-09-14T09:12:49;54.63;48.31;66.63;;
74496;Laerm;62979;55.720;37.606;2022-09-14T09:15:24;62.28;50.85;70.58;;
74496;Laerm;62979;55.720;37.606;2022-09-14T09:17:58;65.55;54.79;70.00;;
74496;Laerm;62979;55.720;37.606;2022-09-14T09:20:31;67.33;62.03;71.67;;
74496;Laerm;62979;55.720;37.606;2022-09-14T09:23:10;67.19;61.52;72.11;;
74496;Laerm;62979;55.720;37.606;2022-09-14T09:25:52;67.29;60.67;71.52;;
74496;Laerm;62979;55.720;37.606;2022-09-14T09:28:22;63.57;50.35;74.97;;
74496;Laerm;62979;55.720;37.606;2022-09-14T09:30:51;58.49;52.20;66.93;;
74496;Laerm;62979;55.720;37.606;2022-09-14T09:33:22;68.34;61.10;74.99;;
74496;Laerm;62979;55.720;37.606;2022-09-14T09:35:52;67.61;62.15;71.67;;
74496;Laerm;62979;55.720;37.606;2022-09-14T09:38:25;67.10;62.45;72.58;;
74496;Laerm;62979;55.720;37.606;2022-09-14T09:40:58;67.43;63.36;72.63;;
74496;Laerm;62979;55.720;37.606;2022-09-14T09:43:27;68.10;62.82;73.74;;
74496;Laerm;62979;55.720;37.606;2022-09-14T09:45:58;61.90;53.49;74.52;;
74496;Laerm;62979;55.720;37.606;2022-09-14T09:48:29;56.55;49.84;64.44;;
74496;Laerm;62979;55.720;37.606;2022-09-14T09:51:11;59.76;49.90;66.20;;
74496;Laerm;62979;55.720;37.606;2022-09-14T09:53:48;61.78;58.77;65.34;;
74496;Laerm;62979;55.720;37.606;2022-09-14T09:56:20;60.29;54.03;64.38;;
74496;Laerm;62979;55.720;37.606;2022-09-14T09:58:49;56.88;46.97;72.23;;
74496;Laerm;62979;55.720;37.606;2022-09-14T10:01:18;62.24;51.87;79.60;;
74496;Laerm;62979;55.720;37.606;2022-09-14T10:04:05;66.03;61.33;73.79;;
74496;Laerm;62979;55.720;37.606;2022-09-14T10:06:41;67.13;63.29;75.37;;
74496;Laerm;62979;55.720;37.606;2022-09-14T10:09:15;66.83;64.01;78.77;;
74496;Laerm;62979;55.720;37.606;2022-09-14T10:11:46;66.12;63.00;76.00;;
74496;Laerm;62979;55.720;37.606;2022-09-14T10:14:26;63.54;59.57;79.22;;
74496;Laerm;62979;55.720;37.606;2022-09-14T10:17:05;63.53;55.02;72.58;;
74496;Laerm;62979;55.720;37.606;2022-09-14T10:19:33;59.83;52.96;73.70;;
74496;Laerm;62979;55.720;37.606;2022-09-14T10:24:55;61.79;50.67;79.38;;
74496;Laerm;62979;55.720;37.606;2022-09-14T10:27:41;61.69;54.78;83.25;;
74496;Laerm;62979;55.720;37.606;2022-09-14T10:30:16;61.59;57.51;75.99;;
74496;Laerm;62979;55.720;37.606;2022-09-14T10:32:53;60.10;55.08;70.14;;
74496;Laerm;62979;55.720;37.606;2022-09-14T10:35:27;62.30;54.58;71.30;;
74496;Laerm;62979;55.720;37.606;2022-09-14T10:38:13;58.30;50.12;66.18;;
74496;Laerm;62979;55.720;37.606;2022-09-14T10:40:51;59.85;50.36;74.10;;
74496;Laerm;62979;55.720;37.606;2022-09-14T10:43:40;58.61;51.34;68.59;;
74496;Laerm;62979;55.720;37.606;2022-09-14T10:46:12;57.49;51.13;68.32;;
74496;Laerm;62979;55.720;37.606;2022-09-14T10:49:00;61.71;52.19;75.71;;
74496;Laerm;62979;55.720;37.606;2022-09-14T10:51:46;64.53;58.79;69.12;;
74496;Laerm;62979;55.720;37.606;2022-09-14T10:54:43;65.21;57.86;82.93;;
74496;Laerm;62979;55.720;37.606;2022-09-14T10:57:30;66.32;62.67;71.18;;
74496;Laerm;62979;55.720;37.606;2022-09-14T11:00:05;62.70;49.57;70.67;;
74496;Laerm;62979;55.720;37.606;2022-09-14T11:03:18;57.85;47.48;70.29;;
74496;Laerm;62979;55.720;37.606;2022-09-14T11:06:04;58.21;51.28;73.77;;
74496;Laerm;62979;55.720;37.606;2022-09-14T11:08:43;59.73;52.18;71.42;;
74496;Laerm;62979;55.720;37.606;2022-09-14T11:11:37;58.62;53.16;68.15;;
74496;Laerm;62979;55.720;37.606;2022-09-14T11:14:24;57.86;50.61;64.39;;
74496;Laerm;62979;55.720;37.606;2022-09-14T11:17:14;56.84;50.87;66.86;;
74496;Laerm;62979;55.720;37.606;2022-09-14T11:19:55;59.71;51.55;72.25;;
74496;Laerm;62979;55.720;37.606;2022-09-14T11:22:36;57.53;51.15;64.85;;
74496;Laerm;62979;55.720;37.606;2022-09-14T11:25:12;59.02;51.78;66.55;;
74496;Laerm;62979;55.720;37.606;2022-09-14T11:27:46;58.81;53.29;72.41;;
74496;Laerm;62979;55.720;37.606;2022-09-14T11:30:17;57.18;50.65;64.75;;
74496;Laerm;62979;55.720;37.606;2022-09-14T11:32:53;57.92;49.97;72.16;;
74496;Laerm;62979;55.720;37.606;2022-09-14T11:35:24;58.78;51.60;72.66;;
74496;Laerm;62979;55.720;37.606;2022-09-14T11:37:58;56.67;50.89;65.49;;
74496;Laerm;62979;55.720;37.606;2022-09-14T11:40:33;58.47;52.96;68.88;;
74496;Laerm;62979;55.720;37.606;2022-09-14T11:43:09;57.74;51.57;70.44;;
74496;Laerm;62979;55.720;37.606;2022-09-14T11:45:45;57.12;51.89;64.01;;
74496;Laerm;62979;55.720;37.606;2022-09-14T11:48:20;57.52;52.96;65.41;;
74496;Laerm;62979;55.720;37.606;2022-09-14T11:50:58;58.38;52.55;69.04;;
74496;Laerm;62979;55.720;37.606;2022-09-14T11:53:27;58.24;52.26;75.22;;
74496;Laerm;62979;55.720;37.606;2022-09-14T11:55:54;58.91;52.46;68.65;;
74496;Laerm;62979;55.720;37.606;2022-09-14T11:58:24;57.55;52.41;65.11;;
74496;Laerm;62979;55.720;37.606;2022-09-14T12:01:28;58.17;50.66;66.13;;
74496;Laerm;62979;55.720;37.606;2022-09-14T12:04:12;57.56;50.62;77.48;;
74496;Laerm;62979;55.720;37.606;2022-09-14T12:07:00;58.18;51.57;67.08;;
74496;Laerm;62979;55.720;37.606;2022-09-14T12:09:42;61.40;54.71;74.59;;
74496;Laerm;62979;55.720;37.606;2022-09-14T12:12:33;60.02;52.55;65.62;;
74496;Laerm;62979;55.720;37.606;2022-09-14T12:15:10;57.79;50.74;65.92;;
74496;Laerm;62979;55.720;37.606;2022-09-14T12:17:38;60.69;53.79;70.04;;
74496;Laerm;62979;55.720;37.606;2022-09-14T12:20:38;59.54;53.14;68.40;;
74496;Laerm;62979;55.720;37.606;2022-09-14T12:23:44;56.43;46.58;64.51;;
74496;Laerm;62979;55.720;37.606;2022-09-14T12:26:37;60.10;49.94;76.72;;
74496;Laerm;62979;55.720;37.606;2022-09-14T12:29:25;60.13;52.08;79.41;;
74496;Laerm;62979;55.720;37.606;2022-09-14T12:35:45;59.24;50.27;77.54;;
74496;Laerm;62979;55.720;37.606;2022-09-14T12:38:41;57.48;50.03;70.41;;
74496;Laerm;62979;55.720;37.606;2022-09-14T12:41:58;56.58;49.26;70.44;;
74496;Laerm;62979;55.720;37.606;2022-09-14T12:44:36;56.48;49.05;65.05;;
74496;Laerm;62979;55.720;37.606;2022-09-14T12:47:58;56.73;47.92;68.92;;
74496;Laerm;62979;55.720;37.606;2022-09-14T12:50:31;55.94;48.13;66.93;;
74496;Laerm;62979;55.720;37.606;2022-09-14T12:53:27;55.50;48.87;64.83;;
74496;Laerm;62979;55.720;37.606;2022-09-14T12:56:03;56.36;50.03;65.67;;
74496;Laerm;62979;55.720;37.606;2022-09-14T12:58:51;55.98;49.46;64.24;;
74496;Laerm;62979;55.720;37.606;2022-09-14T13:01:34;56.15;49.35;64.93;;
74496;Laerm;62979;55.720;37.606;2022-09-14T13:04:13;56.90;47.18;77.45;;
74496;Laerm;62979;55.720;37.606;2022-09-14T13:06:44;60.34;49.19;77.71;;
74496;Laerm;62979;55.720;37.606;2022-09-14T13:09:21;57.47;48.45;67.50;;
74496;Laerm;62979;55.720;37.606;2022-09-14T13:11:54;56.42;47.70;62.65;;
74496;Laerm;62979;55.720;37.606;2022-09-14T13:14:27;56.01;48.16;68.04;;
74496;Laerm;62979;55.720;37.606;2022-09-14T13:16:58;61.98;46.77;73.84;;
74496;Laerm;62979;55.720;37.606;2022-09-14T13:19:30;56.34;48.46;63.12;;
74496;Laerm;62979;55.720;37.606;2022-09-14T13:22:00;57.53;47.80;68.78;;
74496;Laerm;62979;55.720;37.606;2022-09-14T13:24:36;56.04;48.67;63.74;;
74496;Laerm;62979;55.720;37.606;2022-09-14T13:27:05;55.56;46.70;67.29;;
74496;Laerm;62979;55.720;37.606;2022-09-14T13:29:41;57.57;47.26;67.43;;
74496;Laerm;62979;55.720;37.606;2022-09-14T13:32:17;56.15;47.54;62.44;;
74496;Laerm;62979;55.720;37.606;2022-09-14T13:34:46;55.63;48.25;64.37;;
74496;Laerm;62979;55.720;37.606;2022-09-14T13:37:15;61.61;49.05;71.05;;
74496;Laerm;62979;55.720;37.606;2022-09-14T13:39:50;55.62;46.57;62.90;;
74496;Laerm;62979;55.720;37.606;2022-09-14T13:42:18;62.89;47.28;74.13;;
74496;Laerm;62979;55.720;37.606;2022-09-14T13:44:46;57.32;49.73;70.72;;
74496;Laerm;62979;55.720;37.606;2022-09-14T13:47:19;61.51;50.69;72.54;;
74496;Laerm;62979;55.720;37.606;2022-09-14T13:49:50;65.68;49.28;86.06;;
74496;Laerm;62979;55.720;37.606;2022-09-14T13:52:27;56.65;48.05;66.41;;
74496;Laerm;62979;55.720;37.606;2022-09-14T13:55:23;54.98;46.72;65.35;;
74496;Laerm;62979;55.720;37.606;2022-09-14T13:58:19;56.54;47.80;67.03;;
74496;Laerm;62979;55.720;37.606;2022-09-14T14:00:56;57.35;48.24;71.78;;
74496;Laerm;62979;55.720;37.606;2022-09-14T14:03:32;56.81;46.53;68.50;;
74496;Laerm;62979;55.720;37.606;2022-09-14T14:06:18;56.47;46.75;69.53;;
74496;Laerm;62979;55.720;37.606;2022-09-14T14:08:58;56.41;49.40;66.28;;
74496;Laerm;62979;55.720;37.606;2022-09-14T14:11:33;56.09;47.33;64.37;;
74496;Laerm;62979;55.720;37.606;2022-09-14T14:14:19;58.81;48.39;73.46;;